sensor_id;sensor_type;location;lat;lon;timestamp;P1;durP1;ratioP1;P2;durP2;ratioP2
7359;SDS011;3720;48.274;7.796;2023-06-26T00:00:13;10.40;;;6.57;;
7359;SDS011;3720;48.274;7.796;2023-06-26T00:02:47;11.05;;;6.68;;
7359;SDS011;3720;48.274;7.796;2023-06-26T00:05:18;9.38;;;7.15;;
7359;SDS011;3720;48.274;7.796;2023-06-26T00:07:50;11.00;;;6.90;;
7359;SDS011;3720;48.274;7.796;2023-06-26T00:10:22;8.43;;;7.00;;
7359;SDS011;3720;48.274;7.796;2023-06-26T00:12:54;8.57;;;7.10;;
7359;SDS011;3720;48.274;7.796;2023-06-26T00:15:26;9.45;;;6.82;;
7359;SDS011;3720;48.274;7.796;2023-06-26T00:18:02;7.85;;;7.05;;
7359;SDS011;3720;48.274;7.796;2023-06-26T00:20:34;10.43;;;7.28;;
7359;SDS011;3720;48.274;7.796;2023-06-26T00:23:06;8.90;;;6.60;;
7359;SDS011;3720;48.274;7.796;2023-06-26T00:25:38;7.57;;;6.75;;
7359;SDS011;3720;48.274;7.796;2023-06-26T00:28:10;9.70;;;7.07;;
7359;SDS011;3720;48.274;7.796;2023-06-26T00:30:42;7.43;;;6.55;;
7359;SDS011;3720;48.274;7.796;2023-06-26T00:33:16;8.90;;;6.90;;
7359;SDS011;3720;48.274;7.796;2023-06-26T00:35:47;10.02;;;7.20;;
7359;SDS011;3720;48.274;7.796;2023-06-26T00:38:19;9.50;;;7.05;;
7359;SDS011;3720;48.274;7.796;2023-06-26T00:40:51;8.55;;;6.78;;
7359;SDS011;3720;48.274;7.796;2023-06-26T00:43:24;9.82;;;6.78;;
7359;SDS011;3720;48.274;7.796;2023-06-26T00:45:56;8.98;;;6.47;;
7359;SDS011;3720;48.274;7.796;2023-06-26T00:48:30;7.90;;;6.72;;
7359;SDS011;3720;48.274;7.796;2023-06-26T00:51:02;8.52;;;6.55;;
7359;SDS011;3720;48.274;7.796;2023-06-26T00:53:35;9.80;;;6.72;;
7359;SDS011;3720;48.274;7.796;2023-06-26T00:56:07;8.48;;;6.60;;
7359;SDS011;3720;48.274;7.796;2023-06-26T00:58:40;7.78;;;6.30;;
7359;SDS011;3720;48.274;7.796;2023-06-26T01:01:11;11.13;;;6.53;;
7359;SDS011;3720;48.274;7.796;2023-06-26T01:03:47;7.50;;;6.70;;
7359;SDS011;3720;48.274;7.796;2023-06-26T01:06:22;8.57;;;6.85;;
7359;SDS011;3720;48.274;7.796;2023-06-26T01:08:56;9.73;;;6.60;;
7359;SDS011;3720;48.274;7.796;2023-06-26T01:11:28;7.75;;;6.40;;
7359;SDS011;3720;48.274;7.796;2023-06-26T01:14:00;9.10;;;6.70;;
7359;SDS011;3720;48.274;7.796;2023-06-26T01:16:33;7.57;;;6.40;;
7359;SDS011;3720;48.274;7.796;2023-06-26T01:19:08;8.50;;;6.60;;
7359;SDS011;3720;48.274;7.796;2023-06-26T01:21:44;8.40;;;6.80;;
7359;SDS011;3720;48.274;7.796;2023-06-26T01:24:18;8.63;;;6.28;;
7359;SDS011;3720;48.274;7.796;2023-06-26T01:26:52;7.50;;;6.18;;
7359;SDS011;3720;48.274;7.796;2023-06-26T01:29:24;7.65;;;6.53;;
7359;SDS011;3720;48.274;7.796;2023-06-26T01:31:57;8.02;;;6.65;;
7359;SDS011;3720;48.274;7.796;2023-06-26T01:34:30;8.85;;;6.53;;
7359;SDS011;3720;48.274;7.796;2023-06-26T01:37:02;7.10;;;6.10;;
7359;SDS011;3720;48.274;7.796;2023-06-26T01:39:35;8.73;;;6.75;;
7359;SDS011;3720;48.274;7.796;2023-06-26T01:42:08;8.70;;;7.05;;
7359;SDS011;3720;48.274;7.796;2023-06-26T01:44:42;8.43;;;6.70;;
7359;SDS011;3720;48.274;7.796;2023-06-26T01:47:17;7.65;;;6.40;;
7359;SDS011;3720;48.274;7.796;2023-06-26T01:52:28;8.32;;;6.75;;
7359;SDS011;3720;48.274;7.796;2023-06-26T01:55:09;6.97;;;6.03;;
7359;SDS011;3720;48.274;7.796;2023-06-26T01:57:47;9.48;;;6.72;;
7359;SDS011;3720;48.274;7.796;2023-06-26T02:00:22;12.52;;;6.72;;
7359;SDS011;3720;48.274;7.796;2023-06-26T02:02:56;7.50;;;6.15;;
7359;SDS011;3720;48.274;7.796;2023-06-26T02:05:29;9.90;;;7.03;;
7359;SDS011;3720;48.274;7.796;2023-06-26T02:08:01;8.63;;;6.90;;
7359;SDS011;3720;48.274;7.796;2023-06-26T02:10:33;10.65;;;6.75;;
7359;SDS011;3720;48.274;7.796;2023-06-26T02:13:06;7.47;;;6.35;;
7359;SDS011;3720;48.274;7.796;2023-06-26T02:15:39;7.90;;;6.82;;
7359;SDS011;3720;48.274;7.796;2023-06-26T02:18:11;8.13;;;7.15;;
7359;SDS011;3720;48.274;7.796;2023-06-26T02:20:42;9.63;;;7.63;;
7359;SDS011;3720;48.274;7.796;2023-06-26T02:23:14;10.82;;;8.50;;
7359;SDS011;3720;48.274;7.796;2023-06-26T02:25:46;11.25;;;7.78;;
7359;SDS011;3720;48.274;7.796;2023-06-26T02:28:19;9.10;;;7.00;;
7359;SDS011;3720;48.274;7.796;2023-06-26T02:30:51;8.73;;;7.30;;
7359;SDS011;3720;48.274;7.796;2023-06-26T02:33:23;9.30;;;7.25;;
7359;SDS011;3720;48.274;7.796;2023-06-26T02:35:55;10.18;;;7.70;;
7359;SDS011;3720;48.274;7.796;2023-06-26T02:38:27;9.45;;;7.38;;
7359;SDS011;3720;48.274;7.796;2023-06-26T02:40:59;13.30;;;7.85;;
7359;SDS011;3720;48.274;7.796;2023-06-26T02:43:32;10.15;;;8.00;;
7359;SDS011;3720;48.274;7.796;2023-06-26T02:46:04;8.77;;;7.45;;
7359;SDS011;3720;48.274;7.796;2023-06-26T02:48:36;9.77;;;6.90;;
7359;SDS011;3720;48.274;7.796;2023-06-26T02:51:08;12.35;;;7.80;;
7359;SDS011;3720;48.274;7.796;2023-06-26T02:53:39;9.20;;;7.70;;
7359;SDS011;3720;48.274;7.796;2023-06-26T02:56:11;9.85;;;7.85;;
7359;SDS011;3720;48.274;7.796;2023-06-26T02:58:45;9.90;;;7.28;;
7359;SDS011;3720;48.274;7.796;2023-06-26T03:01:17;10.60;;;7.85;;
7359;SDS011;3720;48.274;7.796;2023-06-26T03:03:50;8.32;;;7.00;;
7359;SDS011;3720;48.274;7.796;2023-06-26T03:06:22;9.43;;;7.55;;
7359;SDS011;3720;48.274;7.796;2023-06-26T03:08:54;9.32;;;6.95;;
7359;SDS011;3720;48.274;7.796;2023-06-26T03:11:26;8.25;;;6.82;;
7359;SDS011;3720;48.274;7.796;2023-06-26T03:14:00;9.00;;;7.20;;
7359;SDS011;3720;48.274;7.796;2023-06-26T03:16:31;12.52;;;7.25;;
7359;SDS011;3720;48.274;7.796;2023-06-26T03:19:03;8.75;;;7.32;;
7359;SDS011;3720;48.274;7.796;2023-06-26T03:21:35;10.55;;;7.28;;
7359;SDS011;3720;48.274;7.796;2023-06-26T03:24:07;9.98;;;7.18;;
7359;SDS011;3720;48.274;7.796;2023-06-26T03:26:39;9.27;;;7.80;;
7359;SDS011;3720;48.274;7.796;2023-06-26T03:29:12;10.00;;;7.68;;
7359;SDS011;3720;48.274;7.796;2023-06-26T03:31:44;10.23;;;7.55;;
7359;SDS011;3720;48.274;7.796;2023-06-26T03:34:16;8.80;;;7.30;;
7359;SDS011;3720;48.274;7.796;2023-06-26T03:36:48;10.90;;;7.60;;
7359;SDS011;3720;48.274;7.796;2023-06-26T03:39:20;9.77;;;7.70;;
7359;SDS011;3720;48.274;7.796;2023-06-26T03:41:52;9.25;;;7.35;;
7359;SDS011;3720;48.274;7.796;2023-06-26T03:44:26;8.57;;;7.18;;
7359;SDS011;3720;48.274;7.796;2023-06-26T03:46:58;9.00;;;7.65;;
7359;SDS011;3720;48.274;7.796;2023-06-26T03:49:30;8.82;;;7.32;;
7359;SDS011;3720;48.274;7.796;2023-06-26T03:52:02;10.13;;;7.88;;
7359;SDS011;3720;48.274;7.796;2023-06-26T03:54:34;10.98;;;8.15;;
7359;SDS011;3720;48.274;7.796;2023-06-26T03:57:06;10.40;;;8.05;;
7359;SDS011;3720;48.274;7.796;2023-06-26T03:59:40;11.38;;;8.30;;
7359;SDS011;3720;48.274;7.796;2023-06-26T04:02:11;11.23;;;8.00;;
7359;SDS011;3720;48.274;7.796;2023-06-26T04:04:43;10.38;;;7.95;;
7359;SDS011;3720;48.274;7.796;2023-06-26T04:07:16;14.70;;;7.85;;
7359;SDS011;3720;48.274;7.796;2023-06-26T04:09:47;12.30;;;8.23;;
7359;SDS011;3720;48.274;7.796;2023-06-26T04:12:19;11.93;;;7.72;;
7359;SDS011;3720;48.274;7.796;2023-06-26T04:14:52;9.25;;;7.72;;
7359;SDS011;3720;48.274;7.796;2023-06-26T04:17:24;9.60;;;7.82;;
7359;SDS011;3720;48.274;7.796;2023-06-26T04:19:56;10.15;;;7.80;;
7359;SDS011;3720;48.274;7.796;2023-06-26T04:22:28;9.95;;;7.85;;
7359;SDS011;3720;48.274;7.796;2023-06-26T04:25:01;11.00;;;7.90;;
7359;SDS011;3720;48.274;7.796;2023-06-26T04:27:34;12.60;;;7.93;;
7359;SDS011;3720;48.274;7.796;2023-06-26T04:30:09;12.07;;;7.97;;
7359;SDS011;3720;48.274;7.796;2023-06-26T04:32:42;10.05;;;7.50;;
7359;SDS011;3720;48.274;7.796;2023-06-26T04:35:14;12.23;;;7.72;;
7359;SDS011;3720;48.274;7.796;2023-06-26T04:37:46;10.18;;;7.45;;
7359;SDS011;3720;48.274;7.796;2023-06-26T04:40:18;9.85;;;7.80;;
7359;SDS011;3720;48.274;7.796;2023-06-26T04:42:50;10.05;;;7.30;;
7359;SDS011;3720;48.274;7.796;2023-06-26T04:45:23;11.57;;;7.55;;
7359;SDS011;3720;48.274;7.796;2023-06-26T04:47:55;9.05;;;7.75;;
7359;SDS011;3720;48.274;7.796;2023-06-26T04:50:27;13.60;;;7.50;;
7359;SDS011;3720;48.274;7.796;2023-06-26T04:53:00;9.25;;;7.50;;
7359;SDS011;3720;48.274;7.796;2023-06-26T04:55:32;9.40;;;7.30;;
7359;SDS011;3720;48.274;7.796;2023-06-26T04:58:04;10.57;;;7.45;;
7359;SDS011;3720;48.274;7.796;2023-06-26T05:00:37;9.23;;;7.18;;
7359;SDS011;3720;48.274;7.796;2023-06-26T05:03:13;8.27;;;7.10;;
7359;SDS011;3720;48.274;7.796;2023-06-26T05:05:47;9.93;;;6.93;;
7359;SDS011;3720;48.274;7.796;2023-06-26T05:08:20;8.52;;;6.88;;
7359;SDS011;3720;48.274;7.796;2023-06-26T05:10:53;9.15;;;6.90;;
7359;SDS011;3720;48.274;7.796;2023-06-26T05:13:27;9.35;;;7.38;;
7359;SDS011;3720;48.274;7.796;2023-06-26T05:16:01;10.73;;;7.00;;
7359;SDS011;3720;48.274;7.796;2023-06-26T05:18:33;11.85;;;7.50;;
7359;SDS011;3720;48.274;7.796;2023-06-26T05:21:05;10.02;;;7.50;;
7359;SDS011;3720;48.274;7.796;2023-06-26T05:23:37;9.30;;;6.80;;
7359;SDS011;3720;48.274;7.796;2023-06-26T05:26:10;9.75;;;7.25;;
7359;SDS011;3720;48.274;7.796;2023-06-26T05:28:43;11.48;;;6.78;;
7359;SDS011;3720;48.274;7.796;2023-06-26T05:31:20;11.50;;;7.43;;
7359;SDS011;3720;48.274;7.796;2023-06-26T05:33:53;10.85;;;7.30;;
7359;SDS011;3720;48.274;7.796;2023-06-26T05:36:29;9.85;;;7.18;;
7359;SDS011;3720;48.274;7.796;2023-06-26T05:39:03;9.27;;;7.10;;
7359;SDS011;3720;48.274;7.796;2023-06-26T05:41:36;8.98;;;7.20;;
7359;SDS011;3720;48.274;7.796;2023-06-26T05:44:08;10.88;;;7.13;;
7359;SDS011;3720;48.274;7.796;2023-06-26T05:46:41;8.25;;;6.53;;
7359;SDS011;3720;48.274;7.796;2023-06-26T05:49:14;8.82;;;6.60;;
7359;SDS011;3720;48.274;7.796;2023-06-26T05:51:46;7.93;;;6.47;;
7359;SDS011;3720;48.274;7.796;2023-06-26T05:54:19;9.35;;;6.90;;
7359;SDS011;3720;48.274;7.796;2023-06-26T05:56:51;8.23;;;6.68;;
7359;SDS011;3720;48.274;7.796;2023-06-26T05:59:27;8.15;;;6.63;;
7359;SDS011;3720;48.274;7.796;2023-06-26T06:02:04;7.43;;;6.03;;
7359;SDS011;3720;48.274;7.796;2023-06-26T06:04:36;8.38;;;6.90;;
7359;SDS011;3720;48.274;7.796;2023-06-26T06:07:08;7.45;;;6.13;;
7359;SDS011;3720;48.274;7.796;2023-06-26T06:09:40;8.80;;;6.15;;
7359;SDS011;3720;48.274;7.796;2023-06-26T06:12:12;7.95;;;6.35;;
7359;SDS011;3720;48.274;7.796;2023-06-26T06:14:44;8.35;;;6.60;;
7359;SDS011;3720;48.274;7.796;2023-06-26T06:17:17;8.18;;;6.28;;
7359;SDS011;3720;48.274;7.796;2023-06-26T06:19:49;8.23;;;6.75;;
7359;SDS011;3720;48.274;7.796;2023-06-26T06:22:21;9.93;;;6.55;;
7359;SDS011;3720;48.274;7.796;2023-06-26T06:24:53;8.23;;;6.57;;
7359;SDS011;3720;48.274;7.796;2023-06-26T06:27:25;8.27;;;6.47;;
7359;SDS011;3720;48.274;7.796;2023-06-26T06:29:56;7.60;;;6.15;;
7359;SDS011;3720;48.274;7.796;2023-06-26T06:32:30;9.77;;;6.82;;
7359;SDS011;3720;48.274;7.796;2023-06-26T06:35:02;7.13;;;5.80;;
7359;SDS011;3720;48.274;7.796;2023-06-26T06:37:39;12.50;;;5.90;;
7359;SDS011;3720;48.274;7.796;2023-06-26T06:40:11;10.40;;;6.85;;
7359;SDS011;3720;48.274;7.796;2023-06-26T06:42:44;7.20;;;6.43;;
7359;SDS011;3720;48.274;7.796;2023-06-26T06:45:16;9.80;;;6.68;;
7359;SDS011;3720;48.274;7.796;2023-06-26T06:47:49;7.20;;;6.22;;
7359;SDS011;3720;48.274;7.796;2023-06-26T06:50:21;8.10;;;6.68;;
7359;SDS011;3720;48.274;7.796;2023-06-26T06:52:53;9.15;;;6.65;;
7359;SDS011;3720;48.274;7.796;2023-06-26T06:55:24;7.47;;;6.32;;
7359;SDS011;3720;48.274;7.796;2023-06-26T06:57:56;10.05;;;7.00;;
7359;SDS011;3720;48.274;7.796;2023-06-26T07:00:28;8.70;;;6.60;;
7359;SDS011;3720;48.274;7.796;2023-06-26T07:03:03;7.88;;;6.53;;
7359;SDS011;3720;48.274;7.796;2023-06-26T07:05:35;10.40;;;6.93;;
7359;SDS011;3720;48.274;7.796;2023-06-26T07:08:06;9.73;;;7.38;;
7359;SDS011;3720;48.274;7.796;2023-06-26T07:10:38;11.85;;;6.88;;
7359;SDS011;3720;48.274;7.796;2023-06-26T07:13:10;14.10;;;7.03;;
7359;SDS011;3720;48.274;7.796;2023-06-26T07:15:42;9.55;;;6.47;;
7359;SDS011;3720;48.274;7.796;2023-06-26T07:18:16;9.18;;;6.80;;
7359;SDS011;3720;48.274;7.796;2023-06-26T07:20:48;10.27;;;6.47;;
7359;SDS011;3720;48.274;7.796;2023-06-26T07:23:21;8.63;;;6.65;;
7359;SDS011;3720;48.274;7.796;2023-06-26T07:25:53;9.68;;;6.72;;
7359;SDS011;3720;48.274;7.796;2023-06-26T07:28:25;9.10;;;7.00;;
7359;SDS011;3720;48.274;7.796;2023-06-26T07:30:57;10.82;;;6.90;;
7359;SDS011;3720;48.274;7.796;2023-06-26T07:33:31;9.25;;;6.82;;
7359;SDS011;3720;48.274;7.796;2023-06-26T07:36:03;10.57;;;7.00;;
7359;SDS011;3720;48.274;7.796;2023-06-26T07:38:35;12.85;;;7.10;;
7359;SDS011;3720;48.274;7.796;2023-06-26T07:41:07;11.95;;;7.32;;
7359;SDS011;3720;48.274;7.796;2023-06-26T07:43:38;8.93;;;7.15;;
7359;SDS011;3720;48.274;7.796;2023-06-26T07:46:10;9.00;;;6.78;;
7359;SDS011;3720;48.274;7.796;2023-06-26T07:48:43;16.27;;;6.75;;
7359;SDS011;3720;48.274;7.796;2023-06-26T07:51:15;11.18;;;7.20;;
7359;SDS011;3720;48.274;7.796;2023-06-26T07:53:47;9.50;;;6.95;;
7359;SDS011;3720;48.274;7.796;2023-06-26T07:56:19;8.02;;;6.57;;
7359;SDS011;3720;48.274;7.796;2023-06-26T07:58:51;8.02;;;6.47;;
7359;SDS011;3720;48.274;7.796;2023-06-26T08:01:23;8.40;;;6.10;;
7359;SDS011;3720;48.274;7.796;2023-06-26T08:03:57;7.78;;;6.13;;
7359;SDS011;3720;48.274;7.796;2023-06-26T08:06:29;7.57;;;6.50;;
7359;SDS011;3720;48.274;7.796;2023-06-26T08:09:00;7.95;;;6.40;;
7359;SDS011;3720;48.274;7.796;2023-06-26T08:11:34;8.20;;;6.63;;
7359;SDS011;3720;48.274;7.796;2023-06-26T08:14:06;8.23;;;6.53;;
7359;SDS011;3720;48.274;7.796;2023-06-26T08:16:38;9.13;;;6.38;;
7359;SDS011;3720;48.274;7.796;2023-06-26T08:19:12;9.30;;;6.85;;
7359;SDS011;3720;48.274;7.796;2023-06-26T08:21:45;8.23;;;6.25;;
7359;SDS011;3720;48.274;7.796;2023-06-26T08:24:17;7.07;;;6.38;;
7359;SDS011;3720;48.274;7.796;2023-06-26T08:26:50;11.05;;;6.22;;
7359;SDS011;3720;48.274;7.796;2023-06-26T08:29:21;6.85;;;6.15;;
7359;SDS011;3720;48.274;7.796;2023-06-26T08:31:53;7.53;;;6.70;;
7359;SDS011;3720;48.274;7.796;2023-06-26T08:34:26;8.50;;;7.03;;
7359;SDS011;3720;48.274;7.796;2023-06-26T08:36:59;8.02;;;6.60;;
7359;SDS011;3720;48.274;7.796;2023-06-26T08:39:31;8.95;;;6.95;;
7359;SDS011;3720;48.274;7.796;2023-06-26T08:42:03;7.72;;;6.93;;
7359;SDS011;3720;48.274;7.796;2023-06-26T08:44:35;11.20;;;6.90;;
7359;SDS011;3720;48.274;7.796;2023-06-26T08:47:07;9.63;;;6.82;;
7359;SDS011;3720;48.274;7.796;2023-06-26T08:49:46;8.32;;;7.18;;
7359;SDS011;3720;48.274;7.796;2023-06-26T08:52:22;9.95;;;6.95;;
7359;SDS011;3720;48.274;7.796;2023-06-26T08:54:56;10.38;;;7.07;;
7359;SDS011;3720;48.274;7.796;2023-06-26T08:57:29;8.15;;;6.90;;
7359;SDS011;3720;48.274;7.796;2023-06-26T09:00:03;9.65;;;7.13;;
7359;SDS011;3720;48.274;7.796;2023-06-26T09:02:38;8.48;;;6.97;;
7359;SDS011;3720;48.274;7.796;2023-06-26T09:05:13;8.00;;;6.72;;
7359;SDS011;3720;48.274;7.796;2023-06-26T09:07:46;7.28;;;6.55;;
7359;SDS011;3720;48.274;7.796;2023-06-26T09:10:18;7.90;;;6.57;;
7359;SDS011;3720;48.274;7.796;2023-06-26T09:12:50;8.15;;;7.00;;
7359;SDS011;3720;48.274;7.796;2023-06-26T09:15:26;7.43;;;6.25;;
7359;SDS011;3720;48.274;7.796;2023-06-26T09:17:59;7.95;;;6.57;;
7359;SDS011;3720;48.274;7.796;2023-06-26T09:20:32;7.47;;;6.57;;
7359;SDS011;3720;48.274;7.796;2023-06-26T09:23:04;9.65;;;6.68;;
7359;SDS011;3720;48.274;7.796;2023-06-26T09:25:37;9.35;;;6.53;;
7359;SDS011;3720;48.274;7.796;2023-06-26T09:28:11;8.13;;;6.20;;
7359;SDS011;3720;48.274;7.796;2023-06-26T09:30:44;7.50;;;6.30;;
7359;SDS011;3720;48.274;7.796;2023-06-26T09:33:17;7.82;;;6.30;;
7359;SDS011;3720;48.274;7.796;2023-06-26T09:35:51;8.43;;;6.28;;
7359;SDS011;3720;48.274;7.796;2023-06-26T09:38:23;8.00;;;6.20;;
7359;SDS011;3720;48.274;7.796;2023-06-26T09:40:55;7.18;;;6.07;;
7359;SDS011;3720;48.274;7.796;2023-06-26T09:43:27;8.73;;;6.18;;
7359;SDS011;3720;48.274;7.796;2023-06-26T09:46:02;7.88;;;6.18;;
7359;SDS011;3720;48.274;7.796;2023-06-26T09:48:34;8.95;;;5.95;;
7359;SDS011;3720;48.274;7.796;2023-06-26T09:51:08;9.25;;;6.30;;
7359;SDS011;3720;48.274;7.796;2023-06-26T09:53:41;9.93;;;6.82;;
7359;SDS011;3720;48.274;7.796;2023-06-26T09:56:14;7.82;;;6.70;;
7359;SDS011;3720;48.274;7.796;2023-06-26T09:58:47;7.20;;;6.43;;
7359;SDS011;3720;48.274;7.796;2023-06-26T10:01:21;7.45;;;6.47;;
7359;SDS011;3720;48.274;7.796;2023-06-26T10:03:53;11.82;;;6.40;;
7359;SDS011;3720;48.274;7.796;2023-06-26T10:06:31;7.05;;;6.32;;
7359;SDS011;3720;48.274;7.796;2023-06-26T10:09:06;9.68;;;6.40;;
7359;SDS011;3720;48.274;7.796;2023-06-26T10:11:40;7.80;;;6.00;;
7359;SDS011;3720;48.274;7.796;2023-06-26T10:14:17;6.95;;;5.95;;
7359;SDS011;3720;48.274;7.796;2023-06-26T10:16:50;7.70;;;6.30;;
7359;SDS011;3720;48.274;7.796;2023-06-26T10:19:22;10.75;;;5.97;;
7359;SDS011;3720;48.274;7.796;2023-06-26T10:21:57;9.10;;;6.30;;
7359;SDS011;3720;48.274;7.796;2023-06-26T10:24:31;9.00;;;6.57;;
7359;SDS011;3720;48.274;7.796;2023-06-26T10:27:08;9.80;;;6.28;;
7359;SDS011;3720;48.274;7.796;2023-06-26T10:29:50;9.68;;;5.95;;
7359;SDS011;3720;48.274;7.796;2023-06-26T10:32:25;7.35;;;6.03;;
7359;SDS011;3720;48.274;7.796;2023-06-26T10:34:58;7.78;;;5.78;;
7359;SDS011;3720;48.274;7.796;2023-06-26T10:40:22;6.15;;;5.47;;
7359;SDS011;3720;48.274;7.796;2023-06-26T10:43:06;5.75;;;5.13;;
7359;SDS011;3720;48.274;7.796;2023-06-26T10:45:42;6.30;;;5.57;;
7359;SDS011;3720;48.274;7.796;2023-06-26T10:48:15;6.72;;;5.38;;
7359;SDS011;3720;48.274;7.796;2023-06-26T10:50:47;9.32;;;5.60;;
7359;SDS011;3720;48.274;7.796;2023-06-26T10:53:24;6.85;;;5.53;;
7359;SDS011;3720;48.274;7.796;2023-06-26T10:55:58;8.80;;;5.68;;
7359;SDS011;3720;48.274;7.796;2023-06-26T10:58:31;10.05;;;5.50;;
7359;SDS011;3720;48.274;7.796;2023-06-26T11:01:17;7.18;;;5.50;;
7359;SDS011;3720;48.274;7.796;2023-06-26T11:04:03;7.28;;;6.32;;
7359;SDS011;3720;48.274;7.796;2023-06-26T11:06:37;7.38;;;5.70;;
7359;SDS011;3720;48.274;7.796;2023-06-26T11:09:13;8.77;;;5.32;;
7359;SDS011;3720;48.274;7.796;2023-06-26T11:11:56;9.88;;;5.97;;
7359;SDS011;3720;48.274;7.796;2023-06-26T11:14:35;7.13;;;5.43;;
7359;SDS011;3720;48.274;7.796;2023-06-26T11:17:06;6.15;;;5.38;;
7359;SDS011;3720;48.274;7.796;2023-06-26T11:19:38;9.65;;;5.57;;
7359;SDS011;3720;48.274;7.796;2023-06-26T11:22:14;7.95;;;5.70;;
7359;SDS011;3720;48.274;7.796;2023-06-26T11:24:48;9.13;;;5.40;;
7359;SDS011;3720;48.274;7.796;2023-06-26T11:27:21;7.68;;;5.22;;
7359;SDS011;3720;48.274;7.796;2023-06-26T11:29:54;8.10;;;5.50;;
7359;SDS011;3720;48.274;7.796;2023-06-26T11:32:26;6.35;;;5.07;;
7359;SDS011;3720;48.274;7.796;2023-06-26T11:34:59;7.75;;;5.75;;
7359;SDS011;3720;48.274;7.796;2023-06-26T11:37:31;5.97;;;5.03;;
7359;SDS011;3720;48.274;7.796;2023-06-26T11:40:17;8.27;;;5.05;;
7359;SDS011;3720;48.274;7.796;2023-06-26T11:42:50;6.85;;;4.97;;
7359;SDS011;3720;48.274;7.796;2023-06-26T11:45:22;7.63;;;5.47;;
7359;SDS011;3720;48.274;7.796;2023-06-26T11:47:54;8.15;;;5.20;;
7359;SDS011;3720;48.274;7.796;2023-06-26T11:50:26;7.95;;;4.78;;
7359;SDS011;3720;48.274;7.796;2023-06-26T11:52:59;7.47;;;4.78;;
7359;SDS011;3720;48.274;7.796;2023-06-26T11:55:40;6.65;;;5.05;;
7359;SDS011;3720;48.274;7.796;2023-06-26T11:58:13;5.03;;;4.50;;
7359;SDS011;3720;48.274;7.796;2023-06-26T12:00:47;5.18;;;4.53;;
7359;SDS011;3720;48.274;7.796;2023-06-26T12:03:19;5.47;;;4.30;;
7359;SDS011;3720;48.274;7.796;2023-06-26T12:05:50;9.65;;;4.60;;
7359;SDS011;3720;48.274;7.796;2023-06-26T12:08:23;6.75;;;4.45;;
7359;SDS011;3720;48.274;7.796;2023-06-26T12:10:58;5.28;;;4.18;;
7359;SDS011;3720;48.274;7.796;2023-06-26T12:13:31;6.53;;;4.38;;
7359;SDS011;3720;48.274;7.796;2023-06-26T12:16:03;8.15;;;4.53;;
7359;SDS011;3720;48.274;7.796;2023-06-26T12:18:35;9.63;;;4.10;;
7359;SDS011;3720;48.274;7.796;2023-06-26T12:21:07;4.78;;;3.65;;
7359;SDS011;3720;48.274;7.796;2023-06-26T12:23:39;7.03;;;3.90;;
7359;SDS011;3720;48.274;7.796;2023-06-26T12:26:18;8.63;;;4.10;;
7359;SDS011;3720;48.274;7.796;2023-06-26T12:28:51;6.65;;;3.97;;
7359;SDS011;3720;48.274;7.796;2023-06-26T12:31:23;9.07;;;4.20;;
7359;SDS011;3720;48.274;7.796;2023-06-26T12:33:55;7.13;;;4.50;;
7359;SDS011;3720;48.274;7.796;2023-06-26T12:36:27;4.43;;;3.88;;
7359;SDS011;3720;48.274;7.796;2023-06-26T12:39:00;5.15;;;3.55;;
7359;SDS011;3720;48.274;7.796;2023-06-26T12:41:34;4.22;;;3.58;;
7359;SDS011;3720;48.274;7.796;2023-06-26T12:44:15;4.13;;;3.58;;
7359;SDS011;3720;48.274;7.796;2023-06-26T12:46:49;6.03;;;3.53;;
7359;SDS011;3720;48.274;7.796;2023-06-26T12:49:31;5.23;;;3.77;;
7359;SDS011;3720;48.274;7.796;2023-06-26T12:52:05;4.65;;;4.00;;
7359;SDS011;3720;48.274;7.796;2023-06-26T12:54:39;5.95;;;3.60;;
7359;SDS011;3720;48.274;7.796;2023-06-26T12:57:13;5.28;;;3.85;;
7359;SDS011;3720;48.274;7.796;2023-06-26T12:59:45;5.75;;;3.80;;
7359;SDS011;3720;48.274;7.796;2023-06-26T13:02:17;6.00;;;3.65;;
7359;SDS011;3720;48.274;7.796;2023-06-26T13:04:49;4.70;;;3.60;;
7359;SDS011;3720;48.274;7.796;2023-06-26T13:07:21;5.25;;;3.80;;
7359;SDS011;3720;48.274;7.796;2023-06-26T13:09:55;4.13;;;3.40;;
7359;SDS011;3720;48.274;7.796;2023-06-26T13:12:29;4.07;;;2.78;;
7359;SDS011;3720;48.274;7.796;2023-06-26T13:15:01;4.30;;;2.90;;
7359;SDS011;3720;48.274;7.796;2023-06-26T13:17:32;3.20;;;2.60;;
7359;SDS011;3720;48.274;7.796;2023-06-26T13:20:05;4.70;;;2.60;;
7359;SDS011;3720;48.274;7.796;2023-06-26T13:22:38;4.13;;;2.38;;
7359;SDS011;3720;48.274;7.796;2023-06-26T13:25:10;4.45;;;2.60;;
7359;SDS011;3720;48.274;7.796;2023-06-26T13:27:43;4.53;;;2.88;;
7359;SDS011;3720;48.274;7.796;2023-06-26T13:30:15;4.13;;;2.70;;
7359;SDS011;3720;48.274;7.796;2023-06-26T13:32:47;4.63;;;2.72;;
7359;SDS011;3720;48.274;7.796;2023-06-26T13:35:19;5.35;;;2.92;;
7359;SDS011;3720;48.274;7.796;2023-06-26T13:37:51;5.57;;;3.08;;
7359;SDS011;3720;48.274;7.796;2023-06-26T13:40:23;7.22;;;3.30;;
7359;SDS011;3720;48.274;7.796;2023-06-26T13:42:56;5.80;;;3.45;;
7359;SDS011;3720;48.274;7.796;2023-06-26T13:45:28;4.88;;;3.42;;
7359;SDS011;3720;48.274;7.796;2023-06-26T13:48:00;5.43;;;3.15;;
7359;SDS011;3720;48.274;7.796;2023-06-26T13:50:32;5.72;;;3.10;;
7359;SDS011;3720;48.274;7.796;2023-06-26T13:53:04;5.95;;;3.40;;
7359;SDS011;3720;48.274;7.796;2023-06-26T13:55:36;4.80;;;3.20;;
7359;SDS011;3720;48.274;7.796;2023-06-26T13:58:09;5.20;;;3.20;;
7359;SDS011;3720;48.274;7.796;2023-06-26T14:00:43;4.63;;;3.40;;
7359;SDS011;3720;48.274;7.796;2023-06-26T14:03:15;4.97;;;3.28;;
7359;SDS011;3720;48.274;7.796;2023-06-26T14:05:47;4.70;;;3.25;;
7359;SDS011;3720;48.274;7.796;2023-06-26T14:08:19;5.93;;;3.67;;
7359;SDS011;3720;48.274;7.796;2023-06-26T14:10:51;4.72;;;3.78;;
7359;SDS011;3720;48.274;7.796;2023-06-26T14:13:25;6.47;;;3.85;;
7359;SDS011;3720;48.274;7.796;2023-06-26T14:15:57;7.00;;;3.92;;
7359;SDS011;3720;48.274;7.796;2023-06-26T14:18:28;5.05;;;4.20;;
7359;SDS011;3720;48.274;7.796;2023-06-26T14:21:00;6.40;;;4.13;;
7359;SDS011;3720;48.274;7.796;2023-06-26T14:23:32;6.60;;;4.05;;
7359;SDS011;3720;48.274;7.796;2023-06-26T14:26:04;6.35;;;4.40;;
7359;SDS011;3720;48.274;7.796;2023-06-26T14:28:37;7.45;;;4.90;;
7359;SDS011;3720;48.274;7.796;2023-06-26T14:31:10;7.45;;;4.93;;
7359;SDS011;3720;48.274;7.796;2023-06-26T14:33:42;8.48;;;5.00;;
7359;SDS011;3720;48.274;7.796;2023-06-26T14:36:13;10.10;;;4.97;;
7359;SDS011;3720;48.274;7.796;2023-06-26T14:38:45;7.28;;;5.22;;
7359;SDS011;3720;48.274;7.796;2023-06-26T14:41:17;7.25;;;5.18;;
7359;SDS011;3720;48.274;7.796;2023-06-26T14:43:51;7.53;;;5.28;;
7359;SDS011;3720;48.274;7.796;2023-06-26T14:46:23;7.75;;;5.43;;
7359;SDS011;3720;48.274;7.796;2023-06-26T14:48:55;8.25;;;5.80;;
7359;SDS011;3720;48.274;7.796;2023-06-26T14:51:27;10.10;;;5.68;;
7359;SDS011;3720;48.274;7.796;2023-06-26T14:53:59;7.07;;;5.88;;
7359;SDS011;3720;48.274;7.796;2023-06-26T14:56:31;8.77;;;6.38;;
7359;SDS011;3720;48.274;7.796;2023-06-26T14:59:05;7.63;;;6.60;;
7359;SDS011;3720;48.274;7.796;2023-06-26T15:01:37;8.27;;;6.80;;
7359;SDS011;3720;48.274;7.796;2023-06-26T15:04:09;8.02;;;6.13;;
7359;SDS011;3720;48.274;7.796;2023-06-26T15:06:41;8.85;;;5.97;;
7359;SDS011;3720;48.274;7.796;2023-06-26T15:09:13;9.52;;;6.60;;
7359;SDS011;3720;48.274;7.796;2023-06-26T15:11:45;8.57;;;6.75;;
7359;SDS011;3720;48.274;7.796;2023-06-26T15:14:18;9.43;;;6.80;;
7359;SDS011;3720;48.274;7.796;2023-06-26T15:16:50;13.50;;;6.72;;
7359;SDS011;3720;48.274;7.796;2023-06-26T15:19:22;9.68;;;6.50;;
7359;SDS011;3720;48.274;7.796;2023-06-26T15:21:54;12.55;;;7.28;;
7359;SDS011;3720;48.274;7.796;2023-06-26T15:24:25;10.52;;;6.88;;
7359;SDS011;3720;48.274;7.796;2023-06-26T15:26:57;8.30;;;6.78;;
7359;SDS011;3720;48.274;7.796;2023-06-26T15:29:31;8.48;;;7.10;;
7359;SDS011;3720;48.274;7.796;2023-06-26T15:32:03;10.88;;;7.50;;
7359;SDS011;3720;48.274;7.796;2023-06-26T15:34:35;13.20;;;8.25;;
7359;SDS011;3720;48.274;7.796;2023-06-26T15:37:07;12.52;;;9.35;;
7359;SDS011;3720;48.274;7.796;2023-06-26T15:39:39;11.55;;;8.80;;
7359;SDS011;3720;48.274;7.796;2023-06-26T15:42:11;10.85;;;8.70;;
7359;SDS011;3720;48.274;7.796;2023-06-26T15:44:44;12.60;;;8.85;;
7359;SDS011;3720;48.274;7.796;2023-06-26T15:47:16;10.43;;;8.52;;
7359;SDS011;3720;48.274;7.796;2023-06-26T15:49:48;12.52;;;7.90;;
7359;SDS011;3720;48.274;7.796;2023-06-26T15:52:20;16.15;;;7.90;;